sensor_id;sensor_type;location;lat;lon;timestamp;P1;durP1;ratioP1;P2;durP2;ratioP2
57463;SDS011;43309;44.418;26.122;2023-07-29T00:01:37;6.70;;;4.80;;
57463;SDS011;43309;44.418;26.122;2023-07-29T00:04:07;6.50;;;4.50;;
57463;SDS011;43309;44.418;26.122;2023-07-29T00:06:36;9.20;;;5.10;;
57463;SDS011;43309;44.418;26.122;2023-07-29T00:09:03;8.90;;;4.90;;
57463;SDS011;43309;44.418;26.122;2023-07-29T00:11:30;8.90;;;4.60;;
57463;SDS011;43309;44.418;26.122;2023-07-29T00:14:01;8.40;;;4.50;;
57463;SDS011;43309;44.418;26.122;2023-07-29T00:16:29;9.40;;;5.10;;
57463;SDS011;43309;44.418;26.122;2023-07-29T00:18:56;8.40;;;5.10;;
57463;SDS011;43309;44.418;26.122;2023-07-29T00:21:26;10.50;;;5.20;;
57463;SDS011;43309;44.418;26.122;2023-07-29T00:23:54;8.10;;;5.30;;
57463;SDS011;43309;44.418;26.122;2023-07-29T00:26:24;8.90;;;5.20;;
57463;SDS011;43309;44.418;26.122;2023-07-29T00:28:53;9.30;;;5.00;;
57463;SDS011;43309;44.418;26.122;2023-07-29T00:31:20;11.30;;;5.30;;
57463;SDS011;43309;44.418;26.122;2023-07-29T00:33:48;8.00;;;4.90;;
57463;SDS011;43309;44.418;26.122;2023-07-29T00:36:19;12.80;;;5.00;;
57463;SDS011;43309;44.418;26.122;2023-07-29T00:38:47;9.20;;;5.00;;
57463;SDS011;43309;44.418;26.122;2023-07-29T00:41:23;7.80;;;4.80;;
57463;SDS011;43309;44.418;26.122;2023-07-29T00:43:52;12.10;;;5.20;;
57463;SDS011;43309;44.418;26.122;2023-07-29T00:46:20;10.30;;;4.90;;
57463;SDS011;43309;44.418;26.122;2023-07-29T00:48:48;9.40;;;4.80;;
57463;SDS011;43309;44.418;26.122;2023-07-29T00:51:16;6.30;;;4.30;;
57463;SDS011;43309;44.418;26.122;2023-07-29T00:53:43;9.10;;;4.30;;
57463;SDS011;43309;44.418;26.122;2023-07-29T00:56:11;9.60;;;5.10;;
57463;SDS011;43309;44.418;26.122;2023-07-29T00:58:39;7.40;;;4.70;;
57463;SDS011;43309;44.418;26.122;2023-07-29T01:01:06;9.70;;;4.60;;
57463;SDS011;43309;44.418;26.122;2023-07-29T01:03:34;10.20;;;5.00;;
57463;SDS011;43309;44.418;26.122;2023-07-29T01:06:08;7.50;;;4.80;;
57463;SDS011;43309;44.418;26.122;2023-07-29T01:11:27;7.90;;;4.70;;
57463;SDS011;43309;44.418;26.122;2023-07-29T01:14:23;8.70;;;4.50;;
57463;SDS011;43309;44.418;26.122;2023-07-29T01:17:03;7.00;;;4.30;;
57463;SDS011;43309;44.418;26.122;2023-07-29T01:19:42;13.50;;;4.70;;
57463;SDS011;43309;44.418;26.122;2023-07-29T01:22:25;7.90;;;4.40;;
57463;SDS011;43309;44.418;26.122;2023-07-29T01:24:55;9.60;;;4.80;;
57463;SDS011;43309;44.418;26.122;2023-07-29T01:27:23;6.40;;;4.10;;
57463;SDS011;43309;44.418;26.122;2023-07-29T01:29:50;7.30;;;4.00;;
57463;SDS011;43309;44.418;26.122;2023-07-29T01:37:58;9.70;;;4.30;;
57463;SDS011;43309;44.418;26.122;2023-07-29T01:40:34;8.10;;;4.40;;
57463;SDS011;43309;44.418;26.122;2023-07-29T01:43:05;6.60;;;4.40;;
57463;SDS011;43309;44.418;26.122;2023-07-29T01:45:35;7.40;;;4.40;;
57463;SDS011;43309;44.418;26.122;2023-07-29T01:48:05;7.50;;;4.10;;
57463;SDS011;43309;44.418;26.122;2023-07-29T01:50:35;9.50;;;4.10;;
57463;SDS011;43309;44.418;26.122;2023-07-29T01:53:03;8.60;;;3.80;;
57463;SDS011;43309;44.418;26.122;2023-07-29T01:55:31;7.20;;;4.00;;
57463;SDS011;43309;44.418;26.122;2023-07-29T01:57:58;4.70;;;3.50;;
57463;SDS011;43309;44.418;26.122;2023-07-29T02:00:26;6.40;;;4.00;;
57463;SDS011;43309;44.418;26.122;2023-07-29T02:02:54;7.10;;;3.80;;
57463;SDS011;43309;44.418;26.122;2023-07-29T02:05:21;5.50;;;3.80;;
57463;SDS011;43309;44.418;26.122;2023-07-29T02:07:48;8.10;;;3.90;;
57463;SDS011;43309;44.418;26.122;2023-07-29T02:10:16;7.50;;;4.10;;
57463;SDS011;43309;44.418;26.122;2023-07-29T02:12:43;6.50;;;3.70;;
57463;SDS011;43309;44.418;26.122;2023-07-29T02:15:11;7.30;;;4.00;;
57463;SDS011;43309;44.418;26.122;2023-07-29T02:17:39;5.80;;;3.60;;
57463;SDS011;43309;44.418;26.122;2023-07-29T02:20:08;5.40;;;3.50;;
57463;SDS011;43309;44.418;26.122;2023-07-29T02:22:37;5.70;;;3.80;;
57463;SDS011;43309;44.418;26.122;2023-07-29T02:25:05;5.90;;;3.60;;
57463;SDS011;43309;44.418;26.122;2023-07-29T02:27:32;7.90;;;3.40;;
57463;SDS011;43309;44.418;26.122;2023-07-29T02:30:02;5.60;;;3.50;;
57463;SDS011;43309;44.418;26.122;2023-07-29T02:32:30;5.50;;;3.50;;
57463;SDS011;43309;44.418;26.122;2023-07-29T02:35:01;8.90;;;3.70;;
57463;SDS011;43309;44.418;26.122;2023-07-29T02:37:28;5.70;;;3.40;;
57463;SDS011;43309;44.418;26.122;2023-07-29T02:39:56;7.00;;;3.90;;
57463;SDS011;43309;44.418;26.122;2023-07-29T02:42:23;5.30;;;3.50;;
57463;SDS011;43309;44.418;26.122;2023-07-29T02:44:53;6.60;;;3.80;;
57463;SDS011;43309;44.418;26.122;2023-07-29T02:47:21;6.90;;;3.60;;
57463;SDS011;43309;44.418;26.122;2023-07-29T02:49:48;5.90;;;3.30;;
57463;SDS011;43309;44.418;26.122;2023-07-29T02:52:16;4.50;;;3.20;;
57463;SDS011;43309;44.418;26.122;2023-07-29T02:54:46;5.80;;;3.60;;
57463;SDS011;43309;44.418;26.122;2023-07-29T02:57:13;5.80;;;3.20;;
57463;SDS011;43309;44.418;26.122;2023-07-29T02:59:41;3.70;;;3.10;;
57463;SDS011;43309;44.418;26.122;2023-07-29T03:02:09;8.00;;;3.70;;
57463;SDS011;43309;44.418;26.122;2023-07-29T03:04:36;6.00;;;3.50;;
57463;SDS011;43309;44.418;26.122;2023-07-29T03:07:04;7.00;;;3.30;;
57463;SDS011;43309;44.418;26.122;2023-07-29T03:09:31;5.50;;;3.60;;
57463;SDS011;43309;44.418;26.122;2023-07-29T03:12:00;6.00;;;3.20;;
57463;SDS011;43309;44.418;26.122;2023-07-29T03:14:27;5.90;;;3.70;;
57463;SDS011;43309;44.418;26.122;2023-07-29T03:16:55;8.30;;;3.60;;
57463;SDS011;43309;44.418;26.122;2023-07-29T03:19:23;7.60;;;3.80;;
57463;SDS011;43309;44.418;26.122;2023-07-29T03:21:50;4.30;;;3.50;;
57463;SDS011;43309;44.418;26.122;2023-07-29T03:24:19;4.60;;;3.30;;
57463;SDS011;43309;44.418;26.122;2023-07-29T03:26:47;8.00;;;3.30;;
57463;SDS011;43309;44.418;26.122;2023-07-29T03:29:15;5.70;;;3.30;;
57463;SDS011;43309;44.418;26.122;2023-07-29T03:31:43;6.60;;;3.30;;
57463;SDS011;43309;44.418;26.122;2023-07-29T03:34:10;8.10;;;3.30;;
57463;SDS011;43309;44.418;26.122;2023-07-29T03:36:42;6.50;;;3.50;;
57463;SDS011;43309;44.418;26.122;2023-07-29T03:39:10;6.90;;;3.60;;
57463;SDS011;43309;44.418;26.122;2023-07-29T03:41:37;4.30;;;3.10;;
57463;SDS011;43309;44.418;26.122;2023-07-29T03:44:08;9.40;;;3.10;;
57463;SDS011;43309;44.418;26.122;2023-07-29T03:46:36;5.20;;;3.50;;
57463;SDS011;43309;44.418;26.122;2023-07-29T03:49:03;4.50;;;3.30;;
57463;SDS011;43309;44.418;26.122;2023-07-29T03:51:33;3.70;;;3.00;;
57463;SDS011;43309;44.418;26.122;2023-07-29T03:54:01;6.40;;;3.70;;
57463;SDS011;43309;44.418;26.122;2023-07-29T03:56:29;6.60;;;3.50;;
57463;SDS011;43309;44.418;26.122;2023-07-29T03:59:02;5.50;;;3.20;;
57463;SDS011;43309;44.418;26.122;2023-07-29T04:01:30;5.90;;;3.50;;
57463;SDS011;43309;44.418;26.122;2023-07-29T04:03:59;4.20;;;3.30;;
57463;SDS011;43309;44.418;26.122;2023-07-29T04:06:27;3.90;;;3.20;;
57463;SDS011;43309;44.418;26.122;2023-07-29T04:08:57;5.50;;;3.10;;
57463;SDS011;43309;44.418;26.122;2023-07-29T04:11:25;4.40;;;3.00;;
57463;SDS011;43309;44.418;26.122;2023-07-29T04:13:52;5.40;;;3.30;;
57463;SDS011;43309;44.418;26.122;2023-07-29T04:16:20;5.60;;;3.50;;
57463;SDS011;43309;44.418;26.122;2023-07-29T04:18:47;4.50;;;3.20;;
57463;SDS011;43309;44.418;26.122;2023-07-29T04:21:15;9.10;;;3.70;;
57463;SDS011;43309;44.418;26.122;2023-07-29T04:23:42;10.80;;;3.30;;
57463;SDS011;43309;44.418;26.122;2023-07-29T04:26:10;5.00;;;3.10;;
57463;SDS011;43309;44.418;26.122;2023-07-29T04:28:37;7.70;;;4.40;;
57463;SDS011;43309;44.418;26.122;2023-07-29T04:31:04;3.70;;;3.00;;
57463;SDS011;43309;44.418;26.122;2023-07-29T04:33:32;6.30;;;3.20;;
57463;SDS011;43309;44.418;26.122;2023-07-29T04:35:59;4.90;;;3.60;;
57463;SDS011;43309;44.418;26.122;2023-07-29T04:38:29;5.40;;;3.50;;
57463;SDS011;43309;44.418;26.122;2023-07-29T04:40:59;5.60;;;3.10;;
57463;SDS011;43309;44.418;26.122;2023-07-29T04:43:30;3.90;;;3.40;;
57463;SDS011;43309;44.418;26.122;2023-07-29T04:45:58;5.00;;;3.30;;
57463;SDS011;43309;44.418;26.122;2023-07-29T04:48:26;7.00;;;3.50;;
57463;SDS011;43309;44.418;26.122;2023-07-29T04:50:53;7.10;;;3.10;;
57463;SDS011;43309;44.418;26.122;2023-07-29T04:53:21;4.40;;;3.40;;
57463;SDS011;43309;44.418;26.122;2023-07-29T04:55:49;8.20;;;3.50;;
57463;SDS011;43309;44.418;26.122;2023-07-29T04:58:16;7.80;;;3.30;;
57463;SDS011;43309;44.418;26.122;2023-07-29T05:00:46;5.70;;;3.70;;
57463;SDS011;43309;44.418;26.122;2023-07-29T05:03:13;9.40;;;3.70;;
57463;SDS011;43309;44.418;26.122;2023-07-29T05:05:43;12.00;;;3.70;;
57463;SDS011;43309;44.418;26.122;2023-07-29T05:08:10;7.20;;;3.70;;
57463;SDS011;43309;44.418;26.122;2023-07-29T05:10:38;6.10;;;3.80;;
57463;SDS011;43309;44.418;26.122;2023-07-29T05:13:06;4.70;;;3.50;;
57463;SDS011;43309;44.418;26.122;2023-07-29T05:15:34;6.60;;;3.70;;
57463;SDS011;43309;44.418;26.122;2023-07-29T05:18:01;12.40;;;5.50;;
57463;SDS011;43309;44.418;26.122;2023-07-29T05:20:29;32.20;;;15.00;;
57463;SDS011;43309;44.418;26.122;2023-07-29T05:23:01;37.10;;;19.30;;
57463;SDS011;43309;44.418;26.122;2023-07-29T05:25:36;56.60;;;26.00;;
57463;SDS011;43309;44.418;26.122;2023-07-29T05:28:03;50.20;;;25.00;;
57463;SDS011;43309;44.418;26.122;2023-07-29T05:30:32;61.10;;;26.50;;
57463;SDS011;43309;44.418;26.122;2023-07-29T05:33:00;73.00;;;26.30;;
57463;SDS011;43309;44.418;26.122;2023-07-29T05:35:30;137.80;;;49.50;;
57463;SDS011;43309;44.418;26.122;2023-07-29T05:37:57;60.00;;;22.40;;
57463;SDS011;43309;44.418;26.122;2023-07-29T05:40:25;34.50;;;12.80;;
57463;SDS011;43309;44.418;26.122;2023-07-29T05:42:52;20.60;;;8.80;;
57463;SDS011;43309;44.418;26.122;2023-07-29T05:45:20;23.90;;;7.30;;
57463;SDS011;43309;44.418;26.122;2023-07-29T05:47:48;17.10;;;5.70;;
57463;SDS011;43309;44.418;26.122;2023-07-29T05:50:16;19.00;;;6.10;;
57463;SDS011;43309;44.418;26.122;2023-07-29T05:52:47;18.20;;;5.60;;
57463;SDS011;43309;44.418;26.122;2023-07-29T05:55:17;31.30;;;6.40;;
57463;SDS011;43309;44.418;26.122;2023-07-29T05:57:47;42.80;;;6.20;;
57463;SDS011;43309;44.418;26.122;2023-07-29T06:00:14;35.50;;;6.00;;
57463;SDS011;43309;44.418;26.122;2023-07-29T06:02:42;36.30;;;6.80;;
57463;SDS011;43309;44.418;26.122;2023-07-29T06:05:09;27.20;;;4.90;;
57463;SDS011;43309;44.418;26.122;2023-07-29T06:07:37;30.70;;;7.10;;
57463;SDS011;43309;44.418;26.122;2023-07-29T06:10:04;34.80;;;8.30;;
57463;SDS011;43309;44.418;26.122;2023-07-29T06:12:32;30.50;;;8.20;;
57463;SDS011;43309;44.418;26.122;2023-07-29T06:15:00;30.80;;;8.80;;
57463;SDS011;43309;44.418;26.122;2023-07-29T06:17:27;65.10;;;11.80;;
57463;SDS011;43309;44.418;26.122;2023-07-29T06:19:55;148.80;;;19.00;;
57463;SDS011;43309;44.418;26.122;2023-07-29T06:22:23;123.90;;;18.00;;
57463;SDS011;43309;44.418;26.122;2023-07-29T06:24:51;84.50;;;14.10;;
57463;SDS011;43309;44.418;26.122;2023-07-29T06:27:18;97.40;;;13.40;;
57463;SDS011;43309;44.418;26.122;2023-07-29T06:29:46;137.60;;;16.10;;
57463;SDS011;43309;44.418;26.122;2023-07-29T06:32:14;81.50;;;10.80;;
57463;SDS011;43309;44.418;26.122;2023-07-29T06:34:43;60.90;;;8.70;;
57463;SDS011;43309;44.418;26.122;2023-07-29T06:37:13;53.10;;;8.30;;
57463;SDS011;43309;44.418;26.122;2023-07-29T06:39:40;56.20;;;8.40;;
57463;SDS011;43309;44.418;26.122;2023-07-29T06:42:08;34.90;;;5.90;;
57463;SDS011;43309;44.418;26.122;2023-07-29T06:44:36;25.20;;;5.00;;
57463;SDS011;43309;44.418;26.122;2023-07-29T06:47:06;20.40;;;5.40;;
57463;SDS011;43309;44.418;26.122;2023-07-29T06:49:33;23.80;;;5.30;;
57463;SDS011;43309;44.418;26.122;2023-07-29T06:52:03;27.80;;;5.00;;
57463;SDS011;43309;44.418;26.122;2023-07-29T06:54:31;28.00;;;4.10;;
57463;SDS011;43309;44.418;26.122;2023-07-29T06:56:58;20.50;;;5.30;;
57463;SDS011;43309;44.418;26.122;2023-07-29T06:59:34;67.50;;;10.30;;
57463;SDS011;43309;44.418;26.122;2023-07-29T07:02:06;51.40;;;9.20;;
57463;SDS011;43309;44.418;26.122;2023-07-29T07:04:34;49.00;;;8.40;;
57463;SDS011;43309;44.418;26.122;2023-07-29T07:07:01;39.50;;;8.40;;
57463;SDS011;43309;44.418;26.122;2023-07-29T07:09:29;22.50;;;6.40;;
57463;SDS011;43309;44.418;26.122;2023-07-29T07:11:56;24.60;;;6.40;;
57463;SDS011;43309;44.418;26.122;2023-07-29T07:14:30;27.40;;;5.50;;
57463;SDS011;43309;44.418;26.122;2023-07-29T07:17:06;12.00;;;4.30;;
57463;SDS011;43309;44.418;26.122;2023-07-29T07:19:34;20.40;;;3.80;;
57463;SDS011;43309;44.418;26.122;2023-07-29T07:22:04;24.50;;;4.30;;
57463;SDS011;43309;44.418;26.122;2023-07-29T07:24:31;16.90;;;4.30;;
57463;SDS011;43309;44.418;26.122;2023-07-29T07:26:59;12.80;;;3.40;;
57463;SDS011;43309;44.418;26.122;2023-07-29T07:29:26;17.20;;;3.20;;
57463;SDS011;43309;44.418;26.122;2023-07-29T07:31:53;6.80;;;3.00;;
57463;SDS011;43309;44.418;26.122;2023-07-29T07:34:21;8.70;;;3.00;;
57463;SDS011;43309;44.418;26.122;2023-07-29T07:36:49;10.10;;;2.80;;
57463;SDS011;43309;44.418;26.122;2023-07-29T07:39:16;8.90;;;3.10;;
57463;SDS011;43309;44.418;26.122;2023-07-29T07:41:44;10.00;;;3.50;;
57463;SDS011;43309;44.418;26.122;2023-07-29T07:44:12;7.20;;;2.50;;
57463;SDS011;43309;44.418;26.122;2023-07-29T07:46:42;6.60;;;2.60;;
57463;SDS011;43309;44.418;26.122;2023-07-29T07:49:09;5.60;;;2.80;;
57463;SDS011;43309;44.418;26.122;2023-07-29T07:51:37;5.00;;;2.30;;
57463;SDS011;43309;44.418;26.122;2023-07-29T07:54:04;3.90;;;2.50;;
57463;SDS011;43309;44.418;26.122;2023-07-29T07:56:33;5.70;;;2.80;;
57463;SDS011;43309;44.418;26.122;2023-07-29T07:59:00;6.20;;;2.50;;
57463;SDS011;43309;44.418;26.122;2023-07-29T08:01:36;6.00;;;2.40;;
57463;SDS011;43309;44.418;26.122;2023-07-29T08:04:04;13.50;;;3.10;;
57463;SDS011;43309;44.418;26.122;2023-07-29T08:06:32;19.90;;;4.90;;
57463;SDS011;43309;44.418;26.122;2023-07-29T08:09:01;16.80;;;5.00;;
57463;SDS011;43309;44.418;26.122;2023-07-29T08:11:28;42.60;;;5.80;;
57463;SDS011;43309;44.418;26.122;2023-07-29T08:13:55;24.70;;;4.60;;
57463;SDS011;43309;44.418;26.122;2023-07-29T08:16:26;65.90;;;5.80;;
57463;SDS011;43309;44.418;26.122;2023-07-29T08:18:54;50.30;;;6.30;;
57463;SDS011;43309;44.418;26.122;2023-07-29T08:21:21;25.40;;;4.40;;
57463;SDS011;43309;44.418;26.122;2023-07-29T08:23:48;20.80;;;4.30;;
57463;SDS011;43309;44.418;26.122;2023-07-29T08:26:16;27.00;;;5.30;;
57463;SDS011;43309;44.418;26.122;2023-07-29T08:28:43;20.80;;;4.60;;
57463;SDS011;43309;44.418;26.122;2023-07-29T08:31:16;36.20;;;4.20;;
57463;SDS011;43309;44.418;26.122;2023-07-29T08:33:44;48.30;;;5.20;;
57463;SDS011;43309;44.418;26.122;2023-07-29T08:36:11;13.50;;;3.00;;
57463;SDS011;43309;44.418;26.122;2023-07-29T08:38:39;14.00;;;2.90;;
57463;SDS011;43309;44.418;26.122;2023-07-29T08:43:56;5.60;;;2.60;;
57463;SDS011;43309;44.418;26.122;2023-07-29T08:46:30;13.30;;;2.80;;
57463;SDS011;43309;44.418;26.122;2023-07-29T08:48:58;18.00;;;4.00;;
57463;SDS011;43309;44.418;26.122;2023-07-29T08:51:26;23.90;;;3.60;;
57463;SDS011;43309;44.418;26.122;2023-07-29T08:53:55;11.00;;;3.00;;
57463;SDS011;43309;44.418;26.122;2023-07-29T08:56:22;9.90;;;3.10;;
57463;SDS011;43309;44.418;26.122;2023-07-29T08:58:50;16.50;;;3.90;;
57463;SDS011;43309;44.418;26.122;2023-07-29T09:01:17;10.60;;;3.60;;
57463;SDS011;43309;44.418;26.122;2023-07-29T09:03:45;6.10;;;3.00;;
57463;SDS011;43309;44.418;26.122;2023-07-29T09:06:13;11.60;;;3.10;;
57463;SDS011;43309;44.418;26.122;2023-07-29T09:08:41;19.00;;;9.40;;
57463;SDS011;43309;44.418;26.122;2023-07-29T09:11:13;10.90;;;4.80;;
57463;SDS011;43309;44.418;26.122;2023-07-29T09:13:43;4.50;;;3.10;;
57463;SDS011;43309;44.418;26.122;2023-07-29T09:16:13;13.90;;;4.30;;
57463;SDS011;43309;44.418;26.122;2023-07-29T09:18:45;22.40;;;4.50;;
57463;SDS011;43309;44.418;26.122;2023-07-29T09:21:26;11.20;;;3.40;;
57463;SDS011;43309;44.418;26.122;2023-07-29T09:23:54;13.90;;;3.20;;
57463;SDS011;43309;44.418;26.122;2023-07-29T09:26:29;21.50;;;3.50;;
57463;SDS011;43309;44.418;26.122;2023-07-29T09:28:59;13.60;;;2.80;;
57463;SDS011;43309;44.418;26.122;2023-07-29T09:31:27;19.80;;;3.40;;
57463;SDS011;43309;44.418;26.122;2023-07-29T09:33:59;11.20;;;2.80;;
57463;SDS011;43309;44.418;26.122;2023-07-29T09:36:29;13.00;;;3.70;;
57463;SDS011;43309;44.418;26.122;2023-07-29T09:38:57;28.60;;;4.80;;
57463;SDS011;43309;44.418;26.122;2023-07-29T09:41:26;58.70;;;9.50;;
57463;SDS011;43309;44.418;26.122;2023-07-29T09:43:57;24.60;;;5.80;;
57463;SDS011;43309;44.418;26.122;2023-07-29T09:46:31;12.70;;;4.70;;
57463;SDS011;43309;44.418;26.122;2023-07-29T09:49:03;21.30;;;5.40;;
57463;SDS011;43309;44.418;26.122;2023-07-29T09:51:40;8.80;;;3.60;;
57463;SDS011;43309;44.418;26.122;2023-07-29T09:54:10;1204.20;;;72.10;;
57463;SDS011;43309;44.418;26.122;2023-07-29T09:56:43;158.40;;;52.60;;
57463;SDS011;43309;44.418;26.122;2023-07-29T09:59:14;91.40;;;17.10;;
57463;SDS011;43309;44.418;26.122;2023-07-29T10:01:46;1999.90;;;413.30;;
57463;SDS011;43309;44.418;26.122;2023-07-29T10:04:14;1999.90;;;603.70;;
57463;SDS011;43309;44.418;26.122;2023-07-29T10:06:42;1464.60;;;145.20;;
57463;SDS011;43309;44.418;26.122;2023-07-29T10:09:11;410.10;;;30.30;;
57463;SDS011;43309;44.418;26.122;2023-07-29T10:11:39;136.40;;;14.50;;
57463;SDS011;43309;44.418;26.122;2023-07-29T10:14:06;132.90;;;13.20;;
57463;SDS011;43309;44.418;26.122;2023-07-29T10:16:34;36.30;;;6.00;;
57463;SDS011;43309;44.418;26.122;2023-07-29T10:19:04;31.30;;;4.70;;
57463;SDS011;43309;44.418;26.122;2023-07-29T10:21:31;23.70;;;4.00;;
57463;SDS011;43309;44.418;26.122;2023-07-29T10:24:00;16.30;;;3.50;;
57463;SDS011;43309;44.418;26.122;2023-07-29T10:26:28;15.40;;;3.60;;
57463;SDS011;43309;44.418;26.122;2023-07-29T10:28:56;14.30;;;4.50;;
57463;SDS011;43309;44.418;26.122;2023-07-29T10:31:32;16.30;;;3.90;;
57463;SDS011;43309;44.418;26.122;2023-07-29T10:34:03;18.00;;;4.40;;
57463;SDS011;43309;44.418;26.122;2023-07-29T10:36:31;7.60;;;3.70;;
57463;SDS011;43309;44.418;26.122;2023-07-29T10:38:59;16.10;;;4.10;;
57463;SDS011;43309;44.418;26.122;2023-07-29T10:49:50;3.90;;;2.40;;
57463;SDS011;43309;44.418;26.122;2023-07-29T10:52:28;5.60;;;2.40;;
57463;SDS011;43309;44.418;26.122;2023-07-29T10:55:02;3.30;;;2.20;;
57463;SDS011;43309;44.418;26.122;2023-07-29T10:57:35;4.50;;;2.30;;
57463;SDS011;43309;44.418;26.122;2023-07-29T11:00:08;19.30;;;4.80;;
57463;SDS011;43309;44.418;26.122;2023-07-29T11:02:36;13.60;;;3.40;;
57463;SDS011;43309;44.418;26.122;2023-07-29T11:05:15;7.70;;;3.80;;
57463;SDS011;43309;44.418;26.122;2023-07-29T11:07:44;8.50;;;5.40;;
57463;SDS011;43309;44.418;26.122;2023-07-29T11:10:12;6.50;;;4.10;;
57463;SDS011;43309;44.418;26.122;2023-07-29T11:12:50;3.90;;;3.20;;
57463;SDS011;43309;44.418;26.122;2023-07-29T11:15:22;36.30;;;7.40;;
57463;SDS011;43309;44.418;26.122;2023-07-29T11:18:09;14.80;;;5.50;;
57463;SDS011;43309;44.418;26.122;2023-07-29T11:20:41;10.00;;;5.00;;
57463;SDS011;43309;44.418;26.122;2023-07-29T11:23:15;14.20;;;4.80;;
57463;SDS011;43309;44.418;26.122;2023-07-29T11:25:43;11.80;;;3.80;;
57463;SDS011;43309;44.418;26.122;2023-07-29T11:28:12;1128.10;;;92.70;;
57463;SDS011;43309;44.418;26.122;2023-07-29T11:30:39;1999.90;;;196.90;;
57463;SDS011;43309;44.418;26.122;2023-07-29T11:33:07;1999.90;;;702.00;;
57463;SDS011;43309;44.418;26.122;2023-07-29T11:35:34;1999.90;;;651.50;;
57463;SDS011;43309;44.418;26.122;2023-07-29T11:38:02;1999.90;;;462.40;;
57463;SDS011;43309;44.418;26.122;2023-07-29T11:40:34;1408.50;;;133.00;;
57463;SDS011;43309;44.418;26.122;2023-07-29T11:43:04;522.50;;;45.00;;
57463;SDS011;43309;44.418;26.122;2023-07-29T11:45:34;611.90;;;48.40;;
57463;SDS011;43309;44.418;26.122;2023-07-29T11:48:02;377.10;;;32.20;;
57463;SDS011;43309;44.418;26.122;2023-07-29T11:50:32;316.20;;;137.00;;
57463;SDS011;43309;44.418;26.122;2023-07-29T11:53:05;346.60;;;60.90;;
57463;SDS011;43309;44.418;26.122;2023-07-29T11:55:34;154.80;;;27.10;;
57463;SDS011;43309;44.418;26.122;2023-07-29T12:00:42;596.50;;;65.60;;
57463;SDS011;43309;44.418;26.122;2023-07-29T12:03:16;394.60;;;47.60;;
57463;SDS011;43309;44.418;26.122;2023-07-29T12:05:44;281.50;;;35.70;;
57463;SDS011;43309;44.418;26.122;2023-07-29T12:08:14;295.80;;;39.90;;
57463;SDS011;43309;44.418;26.122;2023-07-29T12:10:43;273.10;;;33.80;;
57463;SDS011;43309;44.418;26.122;2023-07-29T12:13:17;1999.90;;;445.50;;
57463;SDS011;43309;44.418;26.122;2023-07-29T12:15:45;1926.70;;;167.40;;
57463;SDS011;43309;44.418;26.122;2023-07-29T12:18:14;1999.90;;;573.70;;
57463;SDS011;43309;44.418;26.122;2023-07-29T12:20:42;1999.90;;;527.80;;
57463;SDS011;43309;44.418;26.122;2023-07-29T12:23:10;1998.40;;;206.00;;
57463;SDS011;43309;44.418;26.122;2023-07-29T12:25:38;1701.90;;;155.20;;
57463;SDS011;43309;44.418;26.122;2023-07-29T12:28:08;1655.60;;;157.30;;
57463;SDS011;43309;44.418;26.122;2023-07-29T12:30:41;1999.90;;;231.60;;
57463;SDS011;43309;44.418;26.122;2023-07-29T12:33:12;744.00;;;67.90;;
57463;SDS011;43309;44.418;26.122;2023-07-29T12:35:57;472.40;;;37.20;;
57463;SDS011;43309;44.418;26.122;2023-07-29T12:38:27;213.70;;;20.40;;
57463;SDS011;43309;44.418;26.122;2023-07-29T12:41:00;256.30;;;22.90;;
57463;SDS011;43309;44.418;26.122;2023-07-29T12:43:29;173.30;;;17.30;;
57463;SDS011;43309;44.418;26.122;2023-07-29T12:45:57;204.60;;;23.10;;
57463;SDS011;43309;44.418;26.122;2023-07-29T12:48:25;231.70;;;22.40;;
57463;SDS011;43309;44.418;26.122;2023-07-29T12:50:55;219.50;;;24.30;;
57463;SDS011;43309;44.418;26.122;2023-07-29T12:53:25;192.20;;;19.00;;
57463;SDS011;43309;44.418;26.122;2023-07-29T12:55:53;154.40;;;19.20;;
57463;SDS011;43309;44.418;26.122;2023-07-29T12:58:21;226.00;;;18.50;;
57463;SDS011;43309;44.418;26.122;2023-07-29T13:00:48;111.00;;;12.10;;
57463;SDS011;43309;44.418;26.122;2023-07-29T13:03:19;74.50;;;7.50;;
57463;SDS011;43309;44.418;26.122;2023-07-29T13:05:46;60.90;;;7.40;;
57463;SDS011;43309;44.418;26.122;2023-07-29T13:08:15;66.40;;;7.30;;
57463;SDS011;43309;44.418;26.122;2023-07-29T13:10:43;26.50;;;4.40;;
57463;SDS011;43309;44.418;26.122;2023-07-29T13:13:11;22.80;;;3.90;;
57463;SDS011;43309;44.418;26.122;2023-07-29T13:15:38;177.80;;;13.20;;
57463;SDS011;43309;44.418;26.122;2023-07-29T13:18:06;195.20;;;58.10;;
57463;SDS011;43309;44.418;26.122;2023-07-29T13:20:33;58.10;;;23.60;;
57463;SDS011;43309;44.418;26.122;2023-07-29T13:23:04;60.20;;;25.30;;
57463;SDS011;43309;44.418;26.122;2023-07-29T13:25:32;51.30;;;25.20;;
57463;SDS011;43309;44.418;26.122;2023-07-29T13:27:59;44.00;;;25.70;;
57463;SDS011;43309;44.418;26.122;2023-07-29T13:30:27;85.20;;;21.10;;
57463;SDS011;43309;44.418;26.122;2023-07-29T13:32:54;87.30;;;23.10;;
57463;SDS011;43309;44.418;26.122;2023-07-29T13:35:24;85.40;;;24.10;;
57463;SDS011;43309;44.418;26.122;2023-07-29T13:37:52;76.90;;;15.60;;
57463;SDS011;43309;44.418;26.122;2023-07-29T13:40:20;124.80;;;19.10;;
57463;SDS011;43309;44.418;26.122;2023-07-29T13:42:49;106.20;;;14.20;;
57463;SDS011;43309;44.418;26.122;2023-07-29T13:45:16;139.20;;;14.00;;
57463;SDS011;43309;44.418;26.122;2023-07-29T13:47:44;81.80;;;10.60;;
57463;SDS011;43309;44.418;26.122;2023-07-29T13:50:14;24.40;;;4.80;;
57463;SDS011;43309;44.418;26.122;2023-07-29T13:52:42;17.30;;;3.40;;
57463;SDS011;43309;44.418;26.122;2023-07-29T13:55:10;25.60;;;5.00;;
57463;SDS011;43309;44.418;26.122;2023-07-29T13:57:38;25.90;;;5.80;;
57463;SDS011;43309;44.418;26.122;2023-07-29T14:00:07;133.70;;;11.50;;
57463;SDS011;43309;44.418;26.122;2023-07-29T14:02:36;121.60;;;10.60;;
57463;SDS011;43309;44.418;26.122;2023-07-29T14:05:04;124.90;;;11.00;;
57463;SDS011;43309;44.418;26.122;2023-07-29T14:07:33;95.90;;;11.00;;
57463;SDS011;43309;44.418;26.122;2023-07-29T14:10:01;75.60;;;9.10;;
57463;SDS011;43309;44.418;26.122;2023-07-29T14:12:28;65.10;;;9.00;;
57463;SDS011;43309;44.418;26.122;2023-07-29T14:14:56;54.50;;;8.20;;
57463;SDS011;43309;44.418;26.122;2023-07-29T14:17:26;47.90;;;8.20;;
57463;SDS011;43309;44.418;26.122;2023-07-29T14:19:56;42.70;;;7.90;;
57463;SDS011;43309;44.418;26.122;2023-07-29T14:22:24;42.50;;;7.90;;
57463;SDS011;43309;44.418;26.122;2023-07-29T14:24:51;37.60;;;7.60;;
57463;SDS011;43309;44.418;26.122;2023-07-29T14:27:18;36.00;;;7.90;;
57463;SDS011;43309;44.418;26.122;2023-07-29T14:29:46;29.00;;;7.20;;
57463;SDS011;43309;44.418;26.122;2023-07-29T14:32:19;30.20;;;7.20;;
57463;SDS011;43309;44.418;26.122;2023-07-29T14:34:46;33.40;;;7.50;;
57463;SDS011;43309;44.418;26.122;2023-07-29T14:37:13;31.40;;;6.70;;
57463;SDS011;43309;44.418;26.122;2023-07-29T14:39:47;26.80;;;5.70;;
57463;SDS011;43309;44.418;26.122;2023-07-29T14:42:15;21.90;;;5.60;;
57463;SDS011;43309;44.418;26.122;2023-07-29T14:44:42;20.10;;;5.70;;
57463;SDS011;43309;44.418;26.122;2023-07-29T14:47:09;27.00;;;6.10;;
57463;SDS011;43309;44.418;26.122;2023-07-29T14:49:37;15.20;;;5.80;;
57463;SDS011;43309;44.418;26.122;2023-07-29T14:52:05;18.80;;;5.70;;
57463;SDS011;43309;44.418;26.122;2023-07-29T14:54:33;19.00;;;6.30;;